Terminal Aerodrome Forecast
Issued by NWS

Home | Current Version | Previous Version | Text Only | Print | Product List | Glossary On
Versions: 1 2 3 4 5 6 7 8 9 10 11 12 13 14 15 16 17 18 19 20
000
FTUS41 KILN 011125
TAFLCK
TAF
KLCK 011125Z 0112/0212 00000KT 3SM BR SCT002
      TEMPO 0112/0113 1/2SM FG BKN002
     FM011400 24003KT P6SM FEW025
     FM011800 25006KT P6SM BKN040
     FM020800 00000KT 3SM BR SKC
      TEMPO 0208/0212 1SM BR=

USA.gov is the U.S. government's official web portal to all federal, state and local government web resources and services.